| time (UTC) | temp C | wind direction | speed KPH | gust KPH | rain 1hr cm | rain 24hr cm | rain mn cm | humidity % | barometer mb |
| 20260503033840 | 27 | 251 | 0.0 | 4.8 | 0.00 | 0.00 | 0.00 | 80 | 1013.2 |
| 20260503033338 | 27 | 251 | 0.0 | 3.2 | 0.00 | 0.00 | 0.00 | 80 | 1013.1 |
| 20260503032836 | 27 | 251 | 0.0 | 3.2 | 0.00 | 0.00 | 0.00 | 79 | 1013.0 |
| 20260503032334 | 27 | 251 | 0.0 | 3.2 | 0.00 | 0.00 | 0.00 | 79 | 1012.8 |
| 20260503031832 | 27 | 251 | 0.0 | 6.4 | 0.00 | 0.00 | 0.00 | 79 | 1013.0 |
| 20260503031330 | 27 | 272 | 0.0 | 6.4 | 0.00 | 0.00 | 0.00 | 78 | 1013.0 |
| 20260503030830 | 27 | 300 | 0.0 | 6.4 | 0.00 | 0.00 | 0.00 | 78 | 1013.0 |
| 20260503030330 | 27 | 284 | 0.0 | 6.4 | 0.00 | 0.00 | 0.00 | 77 | 1013.0 |
| 20260503025830 | 27 | 251 | 0.0 | 3.2 | 0.00 | 0.00 | 0.00 | 77 | 1013.0 |
| 20260503025335 | 27 | 234 | 0.0 | 3.2 | 0.00 | 0.00 | 0.00 | 76 | 1012.9 |
| 20260503024833 | 27 | 281 | 0.0 | 3.2 | 0.00 | 0.00 | 0.00 | 76 | 1012.9 |
| 20260503023822 | 27 | 242 | 0.0 | 6.4 | 0.00 | 0.00 | 0.00 | 75 | 1013.0 |
| 20260503023315 | 27 | 254 | 0.0 | 6.4 | 0.00 | 0.00 | 0.00 | 74 | 1013.0 |
| 20260503022307 | 27 | 294 | 0.0 | 9.7 | 0.00 | 0.00 | 0.00 | 73 | 1012.9 |
| 20260503021305 | 28 | 323 | 0.0 | 6.4 | 0.00 | 0.00 | 0.00 | 73 | 1012.8 |
| 20260503020302 | 28 | 332 | 0.0 | 6.4 | 0.00 | 0.00 | 0.00 | 72 | 1012.7 |
| 20260503015801 | 28 | 296 | 0.0 | 6.4 | 0.00 | 0.00 | 0.00 | 71 | 1012.7 |
| 20260503015305 | 28 | 281 | 0.0 | 3.2 | 0.00 | 0.00 | 0.00 | 71 | 1012.7 |
| 20260503014801 | 28 | 278 | 0.0 | 3.2 | 0.00 | 0.00 | 0.00 | 70 | 1012.7 |
| 20260503014300 | 28 | 260 | 0.0 | 6.4 | 0.00 | 0.00 | 0.00 | 69 | 1012.7 |
| 20260503013259 | 28 | 274 | 1.6 | 8.0 | 0.00 | 0.00 | 0.00 | 68 | 1012.5 |
| 20260503012300 | 28 | 298 | 1.6 | 6.4 | 0.00 | 0.00 | 0.00 | 66 | 1012.5 |
| 20260503010255 | 29 | 268 | 1.6 | 14.5 | 0.00 | 0.00 | 0.00 | 63 | 1012.0 |
| 20260503005754 | 29 | 85 | 1.6 | 14.5 | 0.00 | 0.00 | 0.00 | 62 | 1012.0 |
| 20260503005252 | 29 | 334 | 1.6 | 8.0 | 0.00 | 0.00 | 0.00 | 62 | 1012.0 |
| 20260503004752 | 29 | 268 | 1.6 | 11.3 | 0.00 | 0.00 | 0.00 | 61 | 1011.9 |
| 20260503004249 | 29 | 320 | 1.6 | 11.3 | 0.00 | 0.00 | 0.00 | 61 | 1011.9 |
| 20260503003749 | 29 | 310 | 1.6 | 9.7 | 0.00 | 0.00 | 0.00 | 61 | 1011.9 |
| 20260503003248 | 29 | 216 | 0.0 | 6.4 | 0.00 | 0.00 | 0.00 | 60 | 1011.7 |
| 20260503002747 | 29 | 276 | 0.0 | 4.8 | 0.00 | 0.00 | 0.00 | 59 | 1011.7 |
| 20260503002247 | 29 | 197 | 0.0 | 3.2 | 0.00 | 0.00 | 0.00 | 59 | 1011.6 |
| 20260503001748 | 30 | 310 | 0.0 | 3.2 | 0.00 | 0.00 | 0.00 | 59 | 1011.4 |
| 20260503001248 | 30 | 230 | 0.0 | 3.2 | 0.00 | 0.00 | 0.00 | 58 | 1011.4 |
| 20260503000748 | 30 | 203 | 0.0 | 8.0 | 0.00 | 0.00 | 0.00 | 58 | 1011.4 |
| 20260503000248 | 30 | 229 | 0.0 | 8.0 | 0.00 | 0.00 | 0.00 | 57 | 1011.3 |
| 20260502235748 | 30 | 269 | 0.0 | 11.3 | 0.00 | 0.00 | 0.00 | 57 | 1011.2 |
| 20260502235248 | 30 | 208 | 1.6 | 11.3 | 0.00 | 0.00 | 0.00 | 56 | 1011.0 |
| 20260502234748 | 30 | 150 | 0.0 | 4.8 | 0.00 | 0.00 | 0.00 | 55 | 1011.0 |
| 20260502234248 | 30 | 148 | 0.0 | 3.2 | 0.00 | 0.00 | 0.00 | 55 | 1010.9 |
| 20260502233748 | 30 | 181 | 1.6 | 11.3 | 0.00 | 0.00 | 0.00 | 54 | 1010.7 |
| 20260502232748 | 31 | 162 | 1.6 | 6.4 | 0.00 | 0.00 | 0.00 | 53 | 1010.5 |
| 20260502232247 | 31 | 176 | 0.0 | 6.4 | 0.00 | 0.00 | 0.00 | 54 | 1010.5 |
| 20260502231747 | 31 | 252 | 1.6 | 9.7 | 0.00 | 0.00 | 0.00 | 54 | 1010.4 |
| 20260502231249 | 31 | 226 | 1.6 | 9.7 | 0.00 | 0.00 | 0.00 | 54 | 1010.3 |
| 20260502230750 | 32 | 185 | 1.6 | 11.3 | 0.00 | 0.00 | 0.00 | 54 | 1010.1 |
| 20260502230249 | 32 | 214 | 3.2 | 12.9 | 0.00 | 0.00 | 0.00 | 53 | 1010.1 |
| 20260502225248 | 32 | 265 | 4.8 | 17.7 | 0.00 | 0.00 | 0.00 | 55 | 1009.9 |
| 20260502224746 | 32 | 155 | 3.2 | 17.7 | 0.00 | 0.00 | 0.00 | 53 | 1010.0 |
| 20260502224246 | 33 | 179 | 1.6 | 6.4 | 0.00 | 0.00 | 0.00 | 50 | 1009.9 |
| 20260502223745 | 33 | 170 | 1.6 | 11.3 | 0.00 | 0.00 | 0.00 | 50 | 1009.8 |
| 20260502223243 | 33 | 150 | 1.6 | 11.3 | 0.00 | 0.00 | 0.00 | 49 | 1009.9 |
| 20260502222743 | 33 | 191 | 1.6 | 9.7 | 0.00 | 0.00 | 0.00 | 50 | 1009.9 |
| 20260502222237 | 33 | 171 | 1.6 | 9.7 | 0.00 | 0.00 | 0.00 | 51 | 1009.9 |
| 20260502221737 | 32 | 207 | 1.6 | 9.7 | 0.00 | 0.00 | 0.00 | 51 | 1009.8 |
| 20260502221236 | 32 | 282 | 4.8 | 16.1 | 0.00 | 0.00 | 0.00 | 53 | 1009.9 |
| 20260502220737 | 32 | 181 | 3.2 | 16.1 | 0.00 | 0.00 | 0.00 | 58 | 1009.8 |
| 20260502220235 | 33 | 178 | 1.6 | 6.4 | 0.00 | 0.00 | 0.00 | 50 | 1009.8 |
| 20260502215736 | 33 | 153 | 3.2 | 11.3 | 0.00 | 0.00 | 0.00 | 56 | 1009.7 |
| 20260502215234 | 32 | 219 | 3.2 | 12.9 | 0.00 | 0.00 | 0.00 | 52 | 1009.8 |
| 20260502214731 | 32 | 160 | 4.8 | 20.9 | 0.00 | 0.00 | 0.00 | 59 | 1009.6 |
| 20260502214230 | 32 | 217 | 4.8 | 20.9 | 0.00 | 0.00 | 0.00 | 62 | 1009.7 |
| 20260502213729 | 32 | 168 | 4.8 | 17.7 | 0.00 | 0.00 | 0.00 | 54 | 1009.5 |
| 20260502213229 | 32 | 233 | 8.0 | 20.9 | 0.00 | 0.00 | 0.00 | 62 | 1009.4 |
| 20260502212729 | 32 | 96 | 6.4 | 20.9 | 0.00 | 0.00 | 0.00 | 64 | 1009.4 |
| 20260502212230 | 33 | 183 | 6.4 | 17.7 | 0.00 | 0.00 | 0.00 | 62 | 1009.4 |
| 20260502211729 | 33 | 281 | 4.8 | 14.5 | 0.00 | 0.00 | 0.00 | 58 | 1009.4 |
| 20260502211229 | 33 | 162 | 4.8 | 12.9 | 0.00 | 0.00 | 0.00 | 47 | 1009.3 |
| 20260502210729 | 33 | 211 | 6.4 | 12.9 | 0.00 | 0.00 | 0.00 | 51 | 1009.3 |
| 20260502210230 | 33 | 123 | 3.2 | 11.3 | 0.00 | 0.00 | 0.00 | 55 | 1009.3 |
| 20260502205728 | 34 | 237 | 3.2 | 17.7 | 0.00 | 0.00 | 0.00 | 50 | 1009.3 |
| 20260502205229 | 33 | 357 | 6.4 | 17.7 | 0.00 | 0.00 | 0.00 | 55 | 1009.3 |
| 20260502204723 | 33 | 127 | 8.0 | 24.1 | 0.00 | 0.00 | 0.00 | 53 | 1009.3 |
| 20260502204217 | 34 | 148 | 6.4 | 24.1 | 0.00 | 0.00 | 0.00 | 54 | 1009.3 |
| 20260502203711 | 35 | 214 | 3.2 | 16.1 | 0.00 | 0.00 | 0.00 | 40 | 1009.3 |
| 20260502203205 | 35 | 173 | 3.2 | 16.1 | 0.00 | 0.00 | 0.00 | 41 | 1009.3 |
| 20260502202703 | 35 | 135 | 4.8 | 16.1 | 0.00 | 0.00 | 0.00 | 43 | 1009.3 |
| 20260502202204 | 35 | 145 | 4.8 | 16.1 | 0.00 | 0.00 | 0.00 | 43 | 1009.5 |
| 20260502201704 | 35 | 249 | 3.2 | 14.5 | 0.00 | 0.00 | 0.00 | 41 | 1009.4 |
| 20260502201203 | 35 | 162 | 3.2 | 12.9 | 0.00 | 0.00 | 0.00 | 43 | 1009.6 |
| 20260502200703 | 35 | 126 | 3.2 | 12.9 | 0.00 | 0.00 | 0.00 | 42 | 1009.7 |
| 20260502195703 | 35 | 273 | 4.8 | 20.9 | 0.00 | 0.00 | 0.00 | 43 | 1009.8 |
| 20260502195203 | 34 | 280 | 6.4 | 22.5 | 0.00 | 0.00 | 0.00 | 46 | 1009.9 |
| 20260502194703 | 35 | 215 | 4.8 | 22.5 | 0.00 | 0.00 | 0.00 | 44 | 1010.0 |
| 20260502194202 | 35 | 89 | 3.2 | 11.3 | 0.00 | 0.00 | 0.00 | 46 | 1009.9 |
| 20260502193702 | 35 | 221 | 1.6 | 12.9 | 0.00 | 0.00 | 0.00 | 45 | 1010.0 |
| 20260502193200 | 35 | 211 | 1.6 | 12.9 | 0.00 | 0.00 | 0.00 | 45 | 1010.1 |
| 20260502192702 | 35 | 236 | 3.2 | 14.5 | 0.00 | 0.00 | 0.00 | 46 | 1010.2 |
| 20260502192201 | 35 | 293 | 3.2 | 14.5 | 0.00 | 0.00 | 0.00 | 46 | 1010.1 |
| 20260502191701 | 35 | 159 | 1.6 | 11.3 | 0.00 | 0.00 | 0.00 | 47 | 1010.2 |
| 20260502191201 | 34 | 245 | 1.6 | 11.3 | 0.00 | 0.00 | 0.00 | 48 | 1010.3 |
| 20260502190701 | 34 | 109 | 1.6 | 14.5 | 0.00 | 0.00 | 0.00 | 48 | 1010.3 |
| 20260502190201 | 35 | 240 | 1.6 | 14.5 | 0.00 | 0.00 | 0.00 | 48 | 1010.3 |
| 20260502185202 | 33 | 327 | 3.2 | 12.9 | 0.00 | 0.00 | 0.00 | 50 | 1010.3 |
| 20260502184702 | 33 | 176 | 4.8 | 14.5 | 0.00 | 0.00 | 0.00 | 50 | 1010.4 |
| 20260502184200 | 33 | 250 | 6.4 | 17.7 | 0.00 | 0.00 | 0.00 | 51 | 1010.3 |
| 20260502183701 | 33 | 154 | 6.4 | 24.1 | 0.00 | 0.00 | 0.00 | 54 | 1010.4 |
| 20260502183201 | 33 | 222 | 4.8 | 24.1 | 0.00 | 0.00 | 0.00 | 51 | 1010.5 |
| 20260502182701 | 32 | 113 | 6.4 | 19.3 | 0.00 | 0.00 | 0.00 | 54 | 1010.4 |
| 20260502182200 | 32 | 190 | 4.8 | 19.3 | 0.00 | 0.00 | 0.00 | 63 | 1010.7 |
| 20260502181201 | 32 | 111 | 6.4 | 25.7 | 0.00 | 0.00 | 0.00 | 62 | 1010.6 |
| 20260502180701 | 32 | 165 | 4.8 | 16.1 | 0.00 | 0.00 | 0.00 | 64 | 1010.6 |
| 20260502180201 | 32 | 197 | 4.8 | 12.9 | 0.00 | 0.00 | 0.00 | 63 | 1010.7 |
| 20260502164157 | 32 | 199 | 6.4 | 17.7 | 0.00 | 0.00 | 0.00 | 65 | 1011.3 |
| 20260502163657 | 32 | 106 | 8.0 | 20.9 | 0.00 | 0.00 | 0.00 | 67 | 1011.2 |
| 20260502163155 | 31 | 120 | 9.7 | 25.7 | 0.00 | 0.00 | 0.00 | 69 | 1011.2 |
| 20260502162155 | 31 | 220 | 9.7 | 25.7 | 0.00 | 0.00 | 0.00 | 68 | 1011.5 |
| 20260502161655 | 31 | 212 | 8.0 | 25.7 | 0.00 | 0.00 | 0.00 | 68 | 1011.4 |
| 20260502161155 | 31 | 194 | 6.4 | 17.7 | 0.00 | 0.00 | 0.00 | 69 | 1011.5 |
| 20260502160655 | 31 | 226 | 8.0 | 25.7 | 0.00 | 0.00 | 0.00 | 69 | 1011.4 |
| 20260502152151 | 31 | 206 | 8.0 | 22.5 | 0.00 | 0.00 | 0.00 | 73 | 1011.6 |
| 20260502151651 | 31 | 150 | 8.0 | 22.5 | 0.00 | 0.00 | 0.00 | 72 | 1011.6 |
| 20260502150147 | 31 | 217 | 9.7 | 22.5 | 0.00 | 0.00 | 0.00 | 73 | 1011.7 |
| 20260502130629 | 28 | 176 | 4.8 | 16.1 | 0.00 | 0.00 | 0.00 | 81 | 1011.3 |
| 20260502130131 | 28 | 201 | 6.4 | 17.7 | 0.00 | 0.00 | 0.00 | 81 | 1011.3 |
| 20260502123129 | 28 | 159 | 6.4 | 14.5 | 0.00 | 0.00 | 0.00 | 82 | 1011.2 |
| 20260502122628 | 28 | 150 | 6.4 | 14.5 | 0.00 | 0.00 | 0.00 | 82 | 1011.3 |
| 20260502122129 | 27 | 192 | 3.2 | 11.3 | 0.00 | 0.00 | 0.00 | 83 | 1011.2 |
| 20260502121629 | 27 | 180 | 1.6 | 6.4 | 0.00 | 0.00 | 0.00 | 84 | 1011.2 |
| 20260502121130 | 27 | 179 | 3.2 | 9.7 | 0.00 | 0.00 | 0.00 | 84 | 1011.2 |
| 20260502120635 | 27 | 173 | 3.2 | 12.9 | 0.00 | 0.00 | 0.00 | 84 | 1011.0 |
| 20260502120130 | 27 | 186 | 4.8 | 17.7 | 0.00 | 0.00 | 0.00 | 84 | 1011.1 |
| 20260502115629 | 27 | 169 | 3.2 | 17.7 | 0.00 | 0.00 | 0.00 | 83 | 1011.0 |
| 20260502115130 | 27 | 205 | 1.6 | 12.9 | 0.00 | 0.00 | 0.00 | 84 | 1011.1 |
| 20260502114629 | 27 | 185 | 3.2 | 12.9 | 0.00 | 0.00 | 0.00 | 84 | 1011.1 |
| 20260502114130 | 27 | 180 | 1.6 | 9.7 | 0.00 | 0.00 | 0.00 | 84 | 1011.1 |
| 20260502113630 | 27 | 176 | 1.6 | 12.9 | 0.00 | 0.00 | 0.00 | 84 | 1011.1 |
| 20260502113130 | 27 | 167 | 3.2 | 12.9 | 0.00 | 0.00 | 0.00 | 84 | 1011.0 |
| 20260502112129 | 27 | 147 | 0.0 | 6.4 | 0.00 | 0.00 | 0.00 | 85 | 1011.0 |
| 20260502111130 | 27 | 168 | 3.2 | 14.5 | 0.00 | 0.00 | 0.00 | 85 | 1011.0 |
| 20260502110629 | 27 | 118 | 3.2 | 8.0 | 0.00 | 0.00 | 0.00 | 85 | 1011.0 |
| 20260502110129 | 27 | 177 | 3.2 | 12.9 | 0.00 | 0.00 | 0.00 | 84 | 1011.0 |
| 20260502105629 | 27 | 178 | 3.2 | 12.9 | 0.00 | 0.00 | 0.00 | 84 | 1011.0 |
| 20260502105130 | 27 | 75 | 3.2 | 11.3 | 0.00 | 0.00 | 0.00 | 84 | 1010.9 |
| 20260502104630 | 27 | 252 | 3.2 | 12.9 | 0.00 | 0.00 | 0.00 | 84 | 1010.8 |
| 20260502104131 | 27 | 193 | 3.2 | 12.9 | 0.00 | 0.00 | 0.00 | 84 | 1010.8 |
| 20260502103628 | 27 | 173 | 3.2 | 12.9 | 0.00 | 0.00 | 0.00 | 83 | 1010.9 |
| 20260502103121 | 27 | 184 | 3.2 | 12.9 | 0.00 | 0.00 | 0.00 | 83 | 1011.0 |
| 20260502102615 | 27 | 226 | 3.2 | 11.3 | 0.00 | 0.00 | 0.00 | 84 | 1011.0 |
| 20260502102110 | 27 | 150 | 1.6 | 11.3 | 0.00 | 0.00 | 0.00 | 84 | 1011.0 |
| 20260502101609 | 27 | 184 | 3.2 | 11.3 | 0.00 | 0.00 | 0.00 | 84 | 1010.9 |
| 20260502101110 | 27 | 163 | 3.2 | 11.3 | 0.00 | 0.00 | 0.00 | 84 | 1011.0 |
| 20260502100607 | 27 | 157 | 3.2 | 16.1 | 0.00 | 0.00 | 0.00 | 84 | 1010.8 |
| 20260502100106 | 27 | 226 | 3.2 | 17.7 | 0.00 | 0.00 | 0.00 | 84 | 1010.8 |
| 20260502091102 | 26 | 160 | 3.2 | 14.5 | 0.00 | 0.00 | 0.00 | 84 | 1010.7 |
| 20260502090602 | 26 | 102 | 4.8 | 14.5 | 0.00 | 0.00 | 0.00 | 84 | 1010.7 |
| 20260502070548 | 26 | 167 | 1.6 | 6.4 | 0.00 | 0.00 | 0.00 | 84 | 1010.8 |
| 20260502070046 | 26 | 145 | 1.6 | 8.0 | 0.00 | 0.00 | 0.00 | 84 | 1010.7 |
| 20260502065546 | 26 | 202 | 1.6 | 8.0 | 0.00 | 0.00 | 0.00 | 84 | 1010.7 |
| 20260502065044 | 26 | 213 | 1.6 | 8.0 | 0.00 | 0.00 | 0.00 | 84 | 1010.7 |
| 20260502064542 | 26 | 184 | 1.6 | 8.0 | 0.00 | 0.00 | 0.00 | 84 | 1010.7 |
| 20260502064039 | 26 | 158 | 0.0 | 6.4 | 0.00 | 0.00 | 0.00 | 84 | 1010.8 |
| 20260502063539 | 26 | 17 | 0.0 | 4.8 | 0.00 | 0.00 | 0.00 | 84 | 1010.8 |
| 20260502063036 | 26 | 134 | 1.6 | 8.0 | 0.00 | 0.00 | 0.00 | 84 | 1011.0 |
| 20260502062534 | 26 | 187 | 1.6 | 8.0 | 0.00 | 0.00 | 0.00 | 84 | 1011.0 |
| 20260502062029 | 26 | 172 | 1.6 | 8.0 | 0.00 | 0.00 | 0.00 | 84 | 1011.0 |
| 20260502061530 | 26 | 174 | 1.6 | 8.0 | 0.00 | 0.00 | 0.00 | 85 | 1011.0 |
| 20260502061029 | 26 | 160 | 0.0 | 4.8 | 0.00 | 0.00 | 0.00 | 85 | 1011.0 |
| 20260502060029 | 26 | 219 | 1.6 | 6.4 | 0.00 | 0.00 | 0.00 | 84 | 1011.0 |
| 20260502055017 | 26 | 136 | 1.6 | 6.4 | 0.00 | 0.00 | 0.00 | 84 | 1010.9 |
| 20260502054513 | 26 | 148 | 1.6 | 4.8 | 0.00 | 0.00 | 0.00 | 85 | 1011.0 |
| 20260502054011 | 26 | 142 | 0.0 | 4.8 | 0.00 | 0.00 | 0.00 | 84 | 1011.1 |
| 20260502053511 | 26 | 167 | 0.0 | 4.8 | 0.00 | 0.00 | 0.00 | 84 | 1011.0 |
| 20260502053011 | 26 | 135 | 0.0 | 4.8 | 0.00 | 0.00 | 0.00 | 84 | 1011.1 |
| 20260502052510 | 26 | 210 | 1.6 | 6.4 | 0.00 | 0.00 | 0.00 | 85 | 1011.1 |
| 20260502052010 | 26 | 119 | 0.0 | 6.4 | 0.00 | 0.00 | 0.00 | 85 | 1011.1 |
| 20260502051507 | 26 | 150 | 0.0 | 6.4 | 0.00 | 0.00 | 0.00 | 84 | 1011.2 |
| 20260502051007 | 25 | 175 | 0.0 | 6.4 | 0.00 | 0.00 | 0.00 | 84 | 1011.3 |
| 20260502050503 | 25 | 180 | 0.0 | 4.8 | 0.00 | 0.00 | 0.00 | 84 | 1011.4 |
| 20260502045003 | 25 | 174 | 0.0 | 4.8 | 0.00 | 0.00 | 0.00 | 83 | 1011.7 |
| 20260502044504 | 25 | 160 | 0.0 | 3.2 | 0.00 | 0.00 | 0.00 | 82 | 1011.6 |
| 20260502044004 | 25 | 139 | 0.0 | 1.6 | 0.00 | 0.00 | 0.00 | 81 | 1011.6 |
| 20260502043502 | 25 | 167 | 0.0 | 1.6 | 0.00 | 0.00 | 0.00 | 81 | 1011.6 |
| 20260502043001 | 24 | 140 | 0.0 | 0.0 | 0.00 | 0.00 | 0.00 | 80 | 1011.7 |
| 20260502042501 | 24 | 154 | 0.0 | 0.0 | 0.00 | 0.00 | 0.00 | 80 | 1011.8 |
| 20260502042002 | 24 | 179 | 0.0 | 0.0 | 0.00 | 0.00 | 0.00 | 81 | 1011.8 |
| 20260502041501 | 24 | 179 | 0.0 | 0.0 | 0.00 | 0.00 | 0.00 | 82 | 1011.8 |
| 20260502041001 | 24 | 179 | 0.0 | 0.0 | 0.00 | 0.00 | 0.00 | 82 | 1011.8 |
| 20260502040500 | 24 | 179 | 0.0 | 0.0 | 0.00 | 0.00 | 0.00 | 83 | 1011.8 |
| 20260502040002 | 24 | 179 | 0.0 | 0.0 | 0.00 | 0.00 | 0.00 | 83 | 1011.8 |
| 20260502035002 | 25 | 179 | 0.0 | 0.0 | 0.00 | 0.00 | 0.00 | 84 | 1011.9 |